Skip Navigation Links Skip Navigation Links

Current Weather

Coolidge Muni, Coolidge, Ariz.

For information only: do not use for flight planning or navigation.
Latest weather
Observation time Thursday, January 27, 2022 10:35 PM MST
Local time Thursday, January 27, 2022 11:05 PM MST
Flight conditions Visual Meteorological Conditions
Winds
Wind direction East-Northeast (70°)
Wind speed 14 mph
Visibility 10 mi.
Sky condition
Ceiling unlimited
Sky clear
Temperature 57°F
Dewpoint 3°F
Altimeter 30.25 in.Hg
Derived measurements
Relative humidity 11%
Density altitude 1121 ft.
Remarks
Fully automated report.
Automated weather observing station with precipitation discriminator.
METAR KP08 280535Z AUTO 07012KT 10SM CLR 14/M16 A3025 RMK AO2

Settings

Location code

InnerDrive.Weather 4.0.6770.0 Release CLR 4.0.30319.42000
Copyright ©2018 Inner Drive Technology. All rights reserved. Portions Copyright ©1986-2018 David Braverman.

Find weather

Site navigation


Skip Navigation Links

Place info

Page info

PayPal - The safer, easier way to pay online!

Return home.

Copyright ©2022 Inner Drive Technology. Purveyors of fine, hand-crafted computer software. Page printed 2022-01-28T06:05:16 UTC.